sensor_id;sensor_type;location;lat;lon;timestamp;temperature;humidity
19164;DHT22;9714;51.208;4.242;2023-04-15T00:00:15;12.30;99.90
19164;DHT22;9714;51.208;4.242;2023-04-15T00:03:35;12.50;99.90
19164;DHT22;9714;51.208;4.242;2023-04-15T00:05:44;12.30;99.90
19164;DHT22;9714;51.208;4.242;2023-04-15T00:08:13;12.30;99.90
19164;DHT22;9714;51.208;4.242;2023-04-15T00:10:40;12.30;99.90
19164;DHT22;9714;51.208;4.242;2023-04-15T00:13:14;12.70;99.90
19164;DHT22;9714;51.208;4.242;2023-04-15T00:15:41;12.50;99.90
19164;DHT22;9714;51.208;4.242;2023-04-15T00:18:10;12.30;99.90
19164;DHT22;9714;51.208;4.242;2023-04-15T00:20:37;12.30;99.90
19164;DHT22;9714;51.208;4.242;2023-04-15T00:23:04;12.20;99.90
19164;DHT22;9714;51.208;4.242;2023-04-15T00:25:36;12.00;99.90
19164;DHT22;9714;51.208;4.242;2023-04-15T00:28:14;11.90;99.90
19164;DHT22;9714;51.208;4.242;2023-04-15T00:30:47;11.70;99.90
19164;DHT22;9714;51.208;4.242;2023-04-15T00:33:19;12.10;99.90
19164;DHT22;9714;51.208;4.242;2023-04-15T00:35:47;12.40;99.90
19164;DHT22;9714;51.208;4.242;2023-04-15T00:38:16;12.10;99.90
19164;DHT22;9714;51.208;4.242;2023-04-15T00:40:44;12.20;99.90
19164;DHT22;9714;51.208;4.242;2023-04-15T00:43:11;12.20;99.90
19164;DHT22;9714;51.208;4.242;2023-04-15T00:45:38;12.00;99.90
19164;DHT22;9714;51.208;4.242;2023-04-15T00:48:05;11.80;99.90
19164;DHT22;9714;51.208;4.242;2023-04-15T00:50:37;11.90;99.90
19164;DHT22;9714;51.208;4.242;2023-04-15T00:53:04;11.70;99.90
19164;DHT22;9714;51.208;4.242;2023-04-15T00:55:31;11.70;99.90
19164;DHT22;9714;51.208;4.242;2023-04-15T00:58:01;11.50;99.90
19164;DHT22;9714;51.208;4.242;2023-04-15T01:00:30;11.50;99.90
19164;DHT22;9714;51.208;4.242;2023-04-15T01:02:57;11.70;99.90
19164;DHT22;9714;51.208;4.242;2023-04-15T01:05:25;11.90;99.90
19164;DHT22;9714;51.208;4.242;2023-04-15T01:07:54;11.80;99.90
19164;DHT22;9714;51.208;4.242;2023-04-15T01:10:22;11.80;99.90
19164;DHT22;9714;51.208;4.242;2023-04-15T01:12:49;11.80;99.90
19164;DHT22;9714;51.208;4.242;2023-04-15T01:15:18;11.70;99.90
19164;DHT22;9714;51.208;4.242;2023-04-15T01:17:47;11.50;99.90
19164;DHT22;9714;51.208;4.242;2023-04-15T01:20:16;11.60;99.90
19164;DHT22;9714;51.208;4.242;2023-04-15T01:26:19;11.60;99.90
19164;DHT22;9714;51.208;4.242;2023-04-15T01:29:30;11.50;99.90
19164;DHT22;9714;51.208;4.242;2023-04-15T01:35:18;11.50;99.90
19164;DHT22;9714;51.208;4.242;2023-04-15T01:38:05;11.50;99.90
19164;DHT22;9714;51.208;4.242;2023-04-15T01:41:08;11.50;99.90
19164;DHT22;9714;51.208;4.242;2023-04-15T01:43:37;11.80;99.90
19164;DHT22;9714;51.208;4.242;2023-04-15T01:46:05;12.00;99.90
19164;DHT22;9714;51.208;4.242;2023-04-15T01:48:32;11.80;99.90
19164;DHT22;9714;51.208;4.242;2023-04-15T01:51:00;11.70;99.90
19164;DHT22;9714;51.208;4.242;2023-04-15T01:53:28;11.80;99.90
19164;DHT22;9714;51.208;4.242;2023-04-15T01:55:55;12.00;99.90
19164;DHT22;9714;51.208;4.242;2023-04-15T01:58:22;12.30;99.90
19164;DHT22;9714;51.208;4.242;2023-04-15T02:00:52;12.10;99.90
19164;DHT22;9714;51.208;4.242;2023-04-15T02:03:27;11.90;99.90
19164;DHT22;9714;51.208;4.242;2023-04-15T02:06:02;11.80;99.90
19164;DHT22;9714;51.208;4.242;2023-04-15T02:08:37;12.00;99.90
19164;DHT22;9714;51.208;4.242;2023-04-15T02:11:07;12.00;99.90
19164;DHT22;9714;51.208;4.242;2023-04-15T02:13:46;11.70;99.90
19164;DHT22;9714;51.208;4.242;2023-04-15T02:16:33;11.50;99.90
19164;DHT22;9714;51.208;4.242;2023-04-15T02:19:01;11.40;99.90
19164;DHT22;9714;51.208;4.242;2023-04-15T02:21:32;11.30;99.90
19164;DHT22;9714;51.208;4.242;2023-04-15T02:24:01;11.10;99.90
19164;DHT22;9714;51.208;4.242;2023-04-15T02:26:38;11.10;99.90
19164;DHT22;9714;51.208;4.242;2023-04-15T02:29:11;11.10;99.90
19164;DHT22;9714;51.208;4.242;2023-04-15T02:31:43;11.70;99.90
19164;DHT22;9714;51.208;4.242;2023-04-15T02:37:25;11.80;99.90
19164;DHT22;9714;51.208;4.242;2023-04-15T02:39:56;11.90;99.90
19164;DHT22;9714;51.208;4.242;2023-04-15T02:42:49;11.30;99.90
19164;DHT22;9714;51.208;4.242;2023-04-15T02:45:18;11.20;99.90
19164;DHT22;9714;51.208;4.242;2023-04-15T02:47:50;11.20;99.90
19164;DHT22;9714;51.208;4.242;2023-04-15T02:50:18;11.20;99.90
19164;DHT22;9714;51.208;4.242;2023-04-15T02:52:45;11.10;99.90
19164;DHT22;9714;51.208;4.242;2023-04-15T02:55:12;11.30;99.90
19164;DHT22;9714;51.208;4.242;2023-04-15T02:57:40;11.40;99.90
19164;DHT22;9714;51.208;4.242;2023-04-15T03:00:09;11.30;99.90
19164;DHT22;9714;51.208;4.242;2023-04-15T03:02:37;11.20;99.90
19164;DHT22;9714;51.208;4.242;2023-04-15T03:05:11;11.30;99.90
19164;DHT22;9714;51.208;4.242;2023-04-15T03:07:38;11.40;99.90
19164;DHT22;9714;51.208;4.242;2023-04-15T03:10:07;11.20;99.90
19164;DHT22;9714;51.208;4.242;2023-04-15T03:12:34;11.20;99.90
19164;DHT22;9714;51.208;4.242;2023-04-15T03:15:03;11.30;99.90
19164;DHT22;9714;51.208;4.242;2023-04-15T03:17:36;11.10;99.90
19164;DHT22;9714;51.208;4.242;2023-04-15T03:20:05;11.00;99.90
19164;DHT22;9714;51.208;4.242;2023-04-15T03:22:33;11.00;99.90
19164;DHT22;9714;51.208;4.242;2023-04-15T03:25:01;11.30;99.90
19164;DHT22;9714;51.208;4.242;2023-04-15T03:27:28;11.30;99.90
19164;DHT22;9714;51.208;4.242;2023-04-15T03:29:56;11.10;99.90
19164;DHT22;9714;51.208;4.242;2023-04-15T03:32:23;10.90;99.90
19164;DHT22;9714;51.208;4.242;2023-04-15T03:34:51;10.70;99.90
19164;DHT22;9714;51.208;4.242;2023-04-15T03:37:19;10.70;99.90
19164;DHT22;9714;51.208;4.242;2023-04-15T03:39:47;10.70;99.90
19164;DHT22;9714;51.208;4.242;2023-04-15T03:42:49;11.10;99.90
19164;DHT22;9714;51.208;4.242;2023-04-15T03:45:27;11.10;99.90
19164;DHT22;9714;51.208;4.242;2023-04-15T03:48:04;11.10;99.90
19164;DHT22;9714;51.208;4.242;2023-04-15T03:50:40;11.10;99.90
19164;DHT22;9714;51.208;4.242;2023-04-15T03:53:22;10.90;99.90
19164;DHT22;9714;51.208;4.242;2023-04-15T04:00:07;11.10;99.90
19164;DHT22;9714;51.208;4.242;2023-04-15T04:03:01;11.20;99.90
19164;DHT22;9714;51.208;4.242;2023-04-15T04:05:59;11.10;99.90
19164;DHT22;9714;51.208;4.242;2023-04-15T04:09:06;11.10;99.90
19164;DHT22;9714;51.208;4.242;2023-04-15T04:11:48;11.00;99.90
19164;DHT22;9714;51.208;4.242;2023-04-15T04:14:17;11.10;99.90
19164;DHT22;9714;51.208;4.242;2023-04-15T04:16:46;11.20;99.90
19164;DHT22;9714;51.208;4.242;2023-04-15T04:19:18;11.40;99.90
19164;DHT22;9714;51.208;4.242;2023-04-15T04:49:58;11.00;99.90
19164;DHT22;9714;51.208;4.242;2023-04-15T04:52:25;11.10;99.90
19164;DHT22;9714;51.208;4.242;2023-04-15T04:54:52;11.00;99.90
19164;DHT22;9714;51.208;4.242;2023-04-15T04:57:19;11.00;99.90
19164;DHT22;9714;51.208;4.242;2023-04-15T04:59:47;11.10;99.90
19164;DHT22;9714;51.208;4.242;2023-04-15T05:23:23;11.20;99.90
19164;DHT22;9714;51.208;4.242;2023-04-15T05:25:56;11.20;99.90
19164;DHT22;9714;51.208;4.242;2023-04-15T05:28:31;11.40;99.90
19164;DHT22;9714;51.208;4.242;2023-04-15T05:31:10;11.40;99.90
19164;DHT22;9714;51.208;4.242;2023-04-15T05:40:12;11.20;99.90
19164;DHT22;9714;51.208;4.242;2023-04-15T06:03:47;11.60;99.90
19164;DHT22;9714;51.208;4.242;2023-04-15T06:06:56;11.50;99.90
19164;DHT22;9714;51.208;4.242;2023-04-15T06:20:32;11.20;99.90
19164;DHT22;9714;51.208;4.242;2023-04-15T06:23:32;11.10;99.90
19164;DHT22;9714;51.208;4.242;2023-04-15T06:26:06;11.30;99.90
19164;DHT22;9714;51.208;4.242;2023-04-15T06:28:40;11.20;99.90
19164;DHT22;9714;51.208;4.242;2023-04-15T06:31:19;11.20;99.90
19164;DHT22;9714;51.208;4.242;2023-04-15T06:34:13;11.20;99.90
19164;DHT22;9714;51.208;4.242;2023-04-15T06:40:38;11.20;99.90
19164;DHT22;9714;51.208;4.242;2023-04-15T06:43:25;11.30;99.90
19164;DHT22;9714;51.208;4.242;2023-04-15T06:46:07;11.40;99.90
19164;DHT22;9714;51.208;4.242;2023-04-15T06:48:46;11.50;99.90
19164;DHT22;9714;51.208;4.242;2023-04-15T06:54:50;11.60;99.90
19164;DHT22;9714;51.208;4.242;2023-04-15T06:57:24;11.70;99.90
19164;DHT22;9714;51.208;4.242;2023-04-15T06:59:57;11.80;99.90
19164;DHT22;9714;51.208;4.242;2023-04-15T07:02:25;12.20;99.90
19164;DHT22;9714;51.208;4.242;2023-04-15T07:04:52;12.00;99.90
19164;DHT22;9714;51.208;4.242;2023-04-15T07:10:53;12.30;99.90
19164;DHT22;9714;51.208;4.242;2023-04-15T07:23:23;13.10;99.90
19164;DHT22;9714;51.208;4.242;2023-04-15T07:25:51;13.30;99.90
19164;DHT22;9714;51.208;4.242;2023-04-15T07:28:18;13.50;99.90
19164;DHT22;9714;51.208;4.242;2023-04-15T07:30:47;13.80;99.90
19164;DHT22;9714;51.208;4.242;2023-04-15T07:33:16;14.50;99.90
19164;DHT22;9714;51.208;4.242;2023-04-15T07:35:43;14.40;99.90
19164;DHT22;9714;51.208;4.242;2023-04-15T07:38:13;13.80;99.90
19164;DHT22;9714;51.208;4.242;2023-04-15T07:40:41;13.80;99.90
19164;DHT22;9714;51.208;4.242;2023-04-15T07:43:09;13.90;99.90
19164;DHT22;9714;51.208;4.242;2023-04-15T07:45:58;13.80;99.90
19164;DHT22;9714;51.208;4.242;2023-04-15T07:48:30;13.80;99.90
19164;DHT22;9714;51.208;4.242;2023-04-15T07:51:27;14.10;99.90
19164;DHT22;9714;51.208;4.242;2023-04-15T08:08:18;16.70;99.90
19164;DHT22;9714;51.208;4.242;2023-04-15T08:10:46;16.90;99.90
19164;DHT22;9714;51.208;4.242;2023-04-15T08:21:43;18.10;99.90
19164;DHT22;9714;51.208;4.242;2023-04-15T08:24:12;17.80;99.90
19164;DHT22;9714;51.208;4.242;2023-04-15T08:26:46;17.70;99.90
19164;DHT22;9714;51.208;4.242;2023-04-15T08:36:50;19.10;98.20
19164;DHT22;9714;51.208;4.242;2023-04-15T08:57:21;19.60;93.10
19164;DHT22;9714;51.208;4.242;2023-04-15T09:06:31;21.30;86.60
19164;DHT22;9714;51.208;4.242;2023-04-15T09:09:11;20.60;86.60
19164;DHT22;9714;51.208;4.242;2023-04-15T09:11:42;21.50;85.20
19164;DHT22;9714;51.208;4.242;2023-04-15T09:14:13;21.50;82.60
19164;DHT22;9714;51.208;4.242;2023-04-15T09:17:03;21.50;78.40
19164;DHT22;9714;51.208;4.242;2023-04-15T09:19:33;21.50;77.80
19164;DHT22;9714;51.208;4.242;2023-04-15T09:22:30;21.40;75.80
19164;DHT22;9714;51.208;4.242;2023-04-15T09:28:43;20.70;82.20
19164;DHT22;9714;51.208;4.242;2023-04-15T09:31:40;21.10;80.00
19164;DHT22;9714;51.208;4.242;2023-04-15T09:34:13;21.00;77.50
19164;DHT22;9714;51.208;4.242;2023-04-15T09:36:54;21.50;76.30
19164;DHT22;9714;51.208;4.242;2023-04-15T09:39:27;20.80;77.40
19164;DHT22;9714;51.208;4.242;2023-04-15T09:42:14;21.10;75.40
19164;DHT22;9714;51.208;4.242;2023-04-15T09:44:50;21.20;75.20
19164;DHT22;9714;51.208;4.242;2023-04-15T09:47:28;21.20;71.90
19164;DHT22;9714;51.208;4.242;2023-04-15T09:49:59;21.80;69.10
19164;DHT22;9714;51.208;4.242;2023-04-15T09:52:30;21.50;68.50
19164;DHT22;9714;51.208;4.242;2023-04-15T09:54:59;21.00;67.70
19164;DHT22;9714;51.208;4.242;2023-04-15T09:57:37;20.80;67.90
19164;DHT22;9714;51.208;4.242;2023-04-15T10:00:09;21.40;68.00
19164;DHT22;9714;51.208;4.242;2023-04-15T10:02:40;22.00;67.20
19164;DHT22;9714;51.208;4.242;2023-04-15T10:05:10;21.60;65.00
19164;DHT22;9714;51.208;4.242;2023-04-15T10:07:41;21.30;67.70
19164;DHT22;9714;51.208;4.242;2023-04-15T10:10:12;21.40;67.40
19164;DHT22;9714;51.208;4.242;2023-04-15T10:12:52;21.50;66.20
19164;DHT22;9714;51.208;4.242;2023-04-15T10:15:22;22.10;63.30
19164;DHT22;9714;51.208;4.242;2023-04-15T10:17:51;22.50;62.60
19164;DHT22;9714;51.208;4.242;2023-04-15T10:20:28;22.60;62.70
19164;DHT22;9714;51.208;4.242;2023-04-15T10:23:00;23.40;63.70
19164;DHT22;9714;51.208;4.242;2023-04-15T10:25:53;23.90;64.30
19164;DHT22;9714;51.208;4.242;2023-04-15T10:28:25;24.30;60.80
19164;DHT22;9714;51.208;4.242;2023-04-15T10:30:53;24.60;58.80
19164;DHT22;9714;51.208;4.242;2023-04-15T10:33:22;24.50;54.50
19164;DHT22;9714;51.208;4.242;2023-04-15T10:35:53;24.80;55.40
19164;DHT22;9714;51.208;4.242;2023-04-15T10:38:38;24.50;53.60
19164;DHT22;9714;51.208;4.242;2023-04-15T10:41:29;23.70;52.70
19164;DHT22;9714;51.208;4.242;2023-04-15T10:44:21;23.40;55.70
19164;DHT22;9714;51.208;4.242;2023-04-15T10:47:12;24.30;54.50
19164;DHT22;9714;51.208;4.242;2023-04-15T10:49:58;24.60;53.20
19164;DHT22;9714;51.208;4.242;2023-04-15T10:52:28;24.30;51.20
19164;DHT22;9714;51.208;4.242;2023-04-15T10:55:02;24.10;51.60
19164;DHT22;9714;51.208;4.242;2023-04-15T10:57:37;24.00;53.30
19164;DHT22;9714;51.208;4.242;2023-04-15T11:00:18;25.00;53.60
19164;DHT22;9714;51.208;4.242;2023-04-15T11:02:47;25.10;53.70
19164;DHT22;9714;51.208;4.242;2023-04-15T11:05:18;24.80;51.50
19164;DHT22;9714;51.208;4.242;2023-04-15T11:07:51;24.60;48.80
19164;DHT22;9714;51.208;4.242;2023-04-15T11:10:49;23.40;51.20
19164;DHT22;9714;51.208;4.242;2023-04-15T11:13:21;24.50;51.80
19164;DHT22;9714;51.208;4.242;2023-04-15T11:15:53;25.00;48.80
19164;DHT22;9714;51.208;4.242;2023-04-15T11:18:22;25.40;49.60
19164;DHT22;9714;51.208;4.242;2023-04-15T11:20:57;25.60;49.60
19164;DHT22;9714;51.208;4.242;2023-04-15T11:23:37;26.20;50.20
19164;DHT22;9714;51.208;4.242;2023-04-15T11:26:10;25.70;50.30
19164;DHT22;9714;51.208;4.242;2023-04-15T11:28:39;25.00;51.60
19164;DHT22;9714;51.208;4.242;2023-04-15T11:31:08;25.60;52.50
19164;DHT22;9714;51.208;4.242;2023-04-15T11:33:37;25.10;51.00
19164;DHT22;9714;51.208;4.242;2023-04-15T11:36:07;25.10;49.10
19164;DHT22;9714;51.208;4.242;2023-04-15T11:38:36;25.10;47.60
19164;DHT22;9714;51.208;4.242;2023-04-15T11:41:05;24.80;49.40
19164;DHT22;9714;51.208;4.242;2023-04-15T11:43:33;24.30;48.70
19164;DHT22;9714;51.208;4.242;2023-04-15T11:46:02;24.70;50.10
19164;DHT22;9714;51.208;4.242;2023-04-15T11:48:32;25.70;48.60
19164;DHT22;9714;51.208;4.242;2023-04-15T11:51:01;26.10;47.90
19164;DHT22;9714;51.208;4.242;2023-04-15T11:53:38;24.30;48.40
19164;DHT22;9714;51.208;4.242;2023-04-15T11:56:09;25.10;47.80
19164;DHT22;9714;51.208;4.242;2023-04-15T11:58:37;24.00;48.40
19164;DHT22;9714;51.208;4.242;2023-04-15T12:01:06;24.10;48.50
19164;DHT22;9714;51.208;4.242;2023-04-15T12:03:37;24.40;48.70
19164;DHT22;9714;51.208;4.242;2023-04-15T12:06:14;25.00;48.70
19164;DHT22;9714;51.208;4.242;2023-04-15T12:08:50;25.80;49.70
19164;DHT22;9714;51.208;4.242;2023-04-15T12:11:18;26.70;49.30
19164;DHT22;9714;51.208;4.242;2023-04-15T12:13:49;26.80;47.80
19164;DHT22;9714;51.208;4.242;2023-04-15T12:16:18;26.30;47.10
19164;DHT22;9714;51.208;4.242;2023-04-15T12:18:46;26.40;48.40
19164;DHT22;9714;51.208;4.242;2023-04-15T12:21:13;26.30;48.60
19164;DHT22;9714;51.208;4.242;2023-04-15T12:23:50;25.70;48.50
19164;DHT22;9714;51.208;4.242;2023-04-15T12:26:25;26.20;47.50
19164;DHT22;9714;51.208;4.242;2023-04-15T12:28:54;27.70;46.80
19164;DHT22;9714;51.208;4.242;2023-04-15T12:31:25;28.00;45.40
19164;DHT22;9714;51.208;4.242;2023-04-15T12:33:54;27.30;45.10
19164;DHT22;9714;51.208;4.242;2023-04-15T12:36:22;27.40;45.20
19164;DHT22;9714;51.208;4.242;2023-04-15T12:38:53;27.30;44.70
19164;DHT22;9714;51.208;4.242;2023-04-15T12:41:22;27.40;44.50
19164;DHT22;9714;51.208;4.242;2023-04-15T12:43:52;27.30;44.90
19164;DHT22;9714;51.208;4.242;2023-04-15T12:46:19;26.80;46.20
19164;DHT22;9714;51.208;4.242;2023-04-15T12:48:47;27.40;46.20
19164;DHT22;9714;51.208;4.242;2023-04-15T12:51:14;27.30;46.50
19164;DHT22;9714;51.208;4.242;2023-04-15T12:53:41;27.30;47.10
19164;DHT22;9714;51.208;4.242;2023-04-15T12:56:11;26.70;46.50
19164;DHT22;9714;51.208;4.242;2023-04-15T12:58:39;25.90;46.40
19164;DHT22;9714;51.208;4.242;2023-04-15T13:01:06;25.60;46.40
19164;DHT22;9714;51.208;4.242;2023-04-15T13:03:33;25.20;46.70
19164;DHT22;9714;51.208;4.242;2023-04-15T13:06:01;24.80;46.80
19164;DHT22;9714;51.208;4.242;2023-04-15T13:08:29;25.20;47.60
19164;DHT22;9714;51.208;4.242;2023-04-15T13:10:58;25.20;46.90
19164;DHT22;9714;51.208;4.242;2023-04-15T13:13:26;24.40;45.80
19164;DHT22;9714;51.208;4.242;2023-04-15T13:15:53;24.30;46.30
19164;DHT22;9714;51.208;4.242;2023-04-15T13:18:22;24.50;46.00
19164;DHT22;9714;51.208;4.242;2023-04-15T13:20:55;24.80;46.50
19164;DHT22;9714;51.208;4.242;2023-04-15T13:23:23;24.80;46.40
19164;DHT22;9714;51.208;4.242;2023-04-15T13:25:53;24.60;46.20
19164;DHT22;9714;51.208;4.242;2023-04-15T13:28:22;25.40;46.90
19164;DHT22;9714;51.208;4.242;2023-04-15T13:30:55;25.80;46.80
19164;DHT22;9714;51.208;4.242;2023-04-15T13:33:23;26.50;47.70
19164;DHT22;9714;51.208;4.242;2023-04-15T13:35:50;27.40;47.70
19164;DHT22;9714;51.208;4.242;2023-04-15T13:38:20;27.50;47.70
19164;DHT22;9714;51.208;4.242;2023-04-15T13:40:49;27.40;47.20
19164;DHT22;9714;51.208;4.242;2023-04-15T13:43:21;25.90;48.60
19164;DHT22;9714;51.208;4.242;2023-04-15T13:45:48;25.80;48.60
19164;DHT22;9714;51.208;4.242;2023-04-15T13:48:15;25.60;48.60
19164;DHT22;9714;51.208;4.242;2023-04-15T13:50:42;25.80;49.90
19164;DHT22;9714;51.208;4.242;2023-04-15T13:53:11;27.00;48.10
19164;DHT22;9714;51.208;4.242;2023-04-15T13:55:38;27.00;47.80
19164;DHT22;9714;51.208;4.242;2023-04-15T13:58:12;27.10;47.30
19164;DHT22;9714;51.208;4.242;2023-04-15T14:00:41;27.50;47.60
19164;DHT22;9714;51.208;4.242;2023-04-15T14:03:19;26.60;47.60
19164;DHT22;9714;51.208;4.242;2023-04-15T14:05:52;24.40;50.10
19164;DHT22;9714;51.208;4.242;2023-04-15T14:08:20;24.20;50.90
19164;DHT22;9714;51.208;4.242;2023-04-15T14:10:47;22.80;55.50
19164;DHT22;9714;51.208;4.242;2023-04-15T14:13:16;22.30;58.80
19164;DHT22;9714;51.208;4.242;2023-04-15T14:15:46;22.80;59.00
19164;DHT22;9714;51.208;4.242;2023-04-15T14:18:13;22.90;59.10
19164;DHT22;9714;51.208;4.242;2023-04-15T14:20:40;22.20;60.80
19164;DHT22;9714;51.208;4.242;2023-04-15T14:23:07;22.90;60.60
19164;DHT22;9714;51.208;4.242;2023-04-15T14:25:35;23.40;61.10
19164;DHT22;9714;51.208;4.242;2023-04-15T14:28:03;24.00;59.90
19164;DHT22;9714;51.208;4.242;2023-04-15T14:30:43;23.60;58.80
19164;DHT22;9714;51.208;4.242;2023-04-15T14:33:13;23.50;59.70
19164;DHT22;9714;51.208;4.242;2023-04-15T14:35:42;23.10;60.40
19164;DHT22;9714;51.208;4.242;2023-04-15T14:38:10;23.70;60.50
19164;DHT22;9714;51.208;4.242;2023-04-15T14:40:36;23.10;60.90
19164;DHT22;9714;51.208;4.242;2023-04-15T14:43:22;23.70;60.30
19164;DHT22;9714;51.208;4.242;2023-04-15T14:46:14;23.30;60.50
19164;DHT22;9714;51.208;4.242;2023-04-15T14:48:42;22.00;62.90
19164;DHT22;9714;51.208;4.242;2023-04-15T14:51:09;22.10;63.80
19164;DHT22;9714;51.208;4.242;2023-04-15T14:53:37;22.50;62.90
19164;DHT22;9714;51.208;4.242;2023-04-15T14:56:04;23.30;63.00
19164;DHT22;9714;51.208;4.242;2023-04-15T14:58:31;23.20;61.90
19164;DHT22;9714;51.208;4.242;2023-04-15T15:00:58;22.60;62.70
19164;DHT22;9714;51.208;4.242;2023-04-15T15:03:29;22.20;63.70
19164;DHT22;9714;51.208;4.242;2023-04-15T15:05:56;22.50;63.40
19164;DHT22;9714;51.208;4.242;2023-04-15T15:08:23;23.20;63.00
19164;DHT22;9714;51.208;4.242;2023-04-15T15:10:52;22.40;63.70
19164;DHT22;9714;51.208;4.242;2023-04-15T15:13:21;21.80;64.00
19164;DHT22;9714;51.208;4.242;2023-04-15T15:15:48;21.10;65.70
19164;DHT22;9714;51.208;4.242;2023-04-15T15:18:15;21.20;67.10
19164;DHT22;9714;51.208;4.242;2023-04-15T15:20:44;21.80;66.00
19164;DHT22;9714;51.208;4.242;2023-04-15T15:23:11;22.30;64.60
19164;DHT22;9714;51.208;4.242;2023-04-15T15:25:38;22.30;63.80
19164;DHT22;9714;51.208;4.242;2023-04-15T15:28:06;22.60;64.30
19164;DHT22;9714;51.208;4.242;2023-04-15T15:30:33;22.00;64.10
19164;DHT22;9714;51.208;4.242;2023-04-15T15:33:00;21.70;64.80
19164;DHT22;9714;51.208;4.242;2023-04-15T15:35:27;21.30;65.70
19164;DHT22;9714;51.208;4.242;2023-04-15T15:37:55;21.10;66.70
19164;DHT22;9714;51.208;4.242;2023-04-15T15:40:23;20.80;67.00
19164;DHT22;9714;51.208;4.242;2023-04-15T15:42:50;21.00;67.00
19164;DHT22;9714;51.208;4.242;2023-04-15T15:45:19;20.90;67.10
19164;DHT22;9714;51.208;4.242;2023-04-15T15:47:46;21.60;66.70
19164;DHT22;9714;51.208;4.242;2023-04-15T15:50:14;21.20;65.90
19164;DHT22;9714;51.208;4.242;2023-04-15T15:52:46;20.80;68.10
19164;DHT22;9714;51.208;4.242;2023-04-15T15:55:21;20.30;68.40
19164;DHT22;9714;51.208;4.242;2023-04-15T15:57:52;20.10;69.80
19164;DHT22;9714;51.208;4.242;2023-04-15T16:00:19;20.60;70.10
19164;DHT22;9714;51.208;4.242;2023-04-15T16:02:47;20.60;69.60
19164;DHT22;9714;51.208;4.242;2023-04-15T16:05:15;19.80;69.40
19164;DHT22;9714;51.208;4.242;2023-04-15T16:07:42;19.80;68.60
19164;DHT22;9714;51.208;4.242;2023-04-15T16:10:09;20.20;69.70
19164;DHT22;9714;51.208;4.242;2023-04-15T16:12:38;20.60;69.50
19164;DHT22;9714;51.208;4.242;2023-04-15T16:17:48;20.60;70.30
19164;DHT22;9714;51.208;4.242;2023-04-15T16:20:15;21.30;69.80
19164;DHT22;9714;51.208;4.242;2023-04-15T16:22:42;20.50;69.10
19164;DHT22;9714;51.208;4.242;2023-04-15T16:25:09;20.60;69.70
19164;DHT22;9714;51.208;4.242;2023-04-15T16:27:40;19.90;70.90
19164;DHT22;9714;51.208;4.242;2023-04-15T16:30:09;19.70;71.70
19164;DHT22;9714;51.208;4.242;2023-04-15T16:32:42;18.90;74.20
19164;DHT22;9714;51.208;4.242;2023-04-15T16:35:12;19.00;74.70
19164;DHT22;9714;51.208;4.242;2023-04-15T16:37:41;19.10;74.40
19164;DHT22;9714;51.208;4.242;2023-04-15T16:40:09;18.80;74.50
19164;DHT22;9714;51.208;4.242;2023-04-15T16:42:36;18.40;77.50
19164;DHT22;9714;51.208;4.242;2023-04-15T16:45:06;18.60;77.90
19164;DHT22;9714;51.208;4.242;2023-04-15T16:47:33;18.40;78.10
19164;DHT22;9714;51.208;4.242;2023-04-15T16:50:00;17.80;80.20
19164;DHT22;9714;51.208;4.242;2023-04-15T16:52:30;17.70;83.10
19164;DHT22;9714;51.208;4.242;2023-04-15T16:54:57;17.80;83.30
19164;DHT22;9714;51.208;4.242;2023-04-15T16:57:24;17.70;85.20
19164;DHT22;9714;51.208;4.242;2023-04-15T16:59:51;17.20;86.90
19164;DHT22;9714;51.208;4.242;2023-04-15T17:02:20;17.60;89.20
19164;DHT22;9714;51.208;4.242;2023-04-15T17:04:47;17.60;88.30
19164;DHT22;9714;51.208;4.242;2023-04-15T17:07:13;17.20;90.10
19164;DHT22;9714;51.208;4.242;2023-04-15T17:09:40;17.20;91.90
19164;DHT22;9714;51.208;4.242;2023-04-15T17:12:07;17.30;92.30
19164;DHT22;9714;51.208;4.242;2023-04-15T17:14:34;17.30;91.90
19164;DHT22;9714;51.208;4.242;2023-04-15T17:17:04;17.00;93.20
19164;DHT22;9714;51.208;4.242;2023-04-15T17:19:33;16.70;94.50
19164;DHT22;9714;51.208;4.242;2023-04-15T17:22:00;16.80;95.60
19164;DHT22;9714;51.208;4.242;2023-04-15T17:24:27;16.70;97.20
19164;DHT22;9714;51.208;4.242;2023-04-15T17:26:54;16.40;98.40
19164;DHT22;9714;51.208;4.242;2023-04-15T17:29:22;16.30;99.90
19164;DHT22;9714;51.208;4.242;2023-04-15T17:31:49;16.10;99.90
19164;DHT22;9714;51.208;4.242;2023-04-15T17:34:16;16.20;99.90
19164;DHT22;9714;51.208;4.242;2023-04-15T17:36:46;15.60;99.90
19164;DHT22;9714;51.208;4.242;2023-04-15T17:39:13;15.10;99.90
19164;DHT22;9714;51.208;4.242;2023-04-15T17:41:42;15.00;99.90
19164;DHT22;9714;51.208;4.242;2023-04-15T17:44:09;14.90;99.90
19164;DHT22;9714;51.208;4.242;2023-04-15T17:46:38;14.60;99.90
19164;DHT22;9714;51.208;4.242;2023-04-15T17:49:05;14.40;99.90
19164;DHT22;9714;51.208;4.242;2023-04-15T17:51:34;14.60;99.90
19164;DHT22;9714;51.208;4.242;2023-04-15T17:54:03;14.90;99.90
19164;DHT22;9714;51.208;4.242;2023-04-15T17:56:32;14.70;99.90
19164;DHT22;9714;51.208;4.242;2023-04-15T17:58:59;14.40;99.90
19164;DHT22;9714;51.208;4.242;2023-04-15T18:01:27;14.00;99.90
19164;DHT22;9714;51.208;4.242;2023-04-15T18:03:55;13.90;99.90
19164;DHT22;9714;51.208;4.242;2023-04-15T18:06:25;13.60;99.90
19164;DHT22;9714;51.208;4.242;2023-04-15T18:08:56;13.50;99.90
19164;DHT22;9714;51.208;4.242;2023-04-15T18:11:25;13.30;99.90
19164;DHT22;9714;51.208;4.242;2023-04-15T18:13:53;13.10;99.90
19164;DHT22;9714;51.208;4.242;2023-04-15T18:16:20;12.90;99.90
19164;DHT22;9714;51.208;4.242;2023-04-15T18:18:47;13.20;99.90
19164;DHT22;9714;51.208;4.242;2023-04-15T18:21:14;12.60;99.90
19164;DHT22;9714;51.208;4.242;2023-04-15T18:23:41;12.80;99.90
19164;DHT22;9714;51.208;4.242;2023-04-15T18:26:08;12.80;99.90
19164;DHT22;9714;51.208;4.242;2023-04-15T18:28:41;12.70;99.90
19164;DHT22;9714;51.208;4.242;2023-04-15T18:31:10;12.70;99.90
19164;DHT22;9714;51.208;4.242;2023-04-15T18:33:40;12.50;99.90
19164;DHT22;9714;51.208;4.242;2023-04-15T18:36:08;12.20;99.90
19164;DHT22;9714;51.208;4.242;2023-04-15T18:38:36;12.30;99.90
19164;DHT22;9714;51.208;4.242;2023-04-15T18:41:03;12.20;99.90
19164;DHT22;9714;51.208;4.242;2023-04-15T18:43:30;12.10;99.90
19164;DHT22;9714;51.208;4.242;2023-04-15T18:46:00;12.10;99.90
19164;DHT22;9714;51.208;4.242;2023-04-15T18:48:28;12.00;99.90
19164;DHT22;9714;51.208;4.242;2023-04-15T18:50:55;12.00;99.90
19164;DHT22;9714;51.208;4.242;2023-04-15T18:53:23;11.90;99.90
19164;DHT22;9714;51.208;4.242;2023-04-15T18:55:56;11.60;99.90
19164;DHT22;9714;51.208;4.242;2023-04-15T18:58:27;11.60;99.90
19164;DHT22;9714;51.208;4.242;2023-04-15T19:00:54;11.60;99.90
19164;DHT22;9714;51.208;4.242;2023-04-15T19:03:24;11.70;99.90
19164;DHT22;9714;51.208;4.242;2023-04-15T19:05:52;11.60;99.90
19164;DHT22;9714;51.208;4.242;2023-04-15T19:08:20;11.60;99.90
19164;DHT22;9714;51.208;4.242;2023-04-15T19:10:48;11.30;99.90
19164;DHT22;9714;51.208;4.242;2023-04-15T19:13:16;11.30;99.90
19164;DHT22;9714;51.208;4.242;2023-04-15T19:15:45;11.10;99.90